createdAt,value
2018-06-23T00:01:43.404Z,952.57
2018-06-23T00:04:09.708Z,952.56
2018-06-23T00:06:36.034Z,952.54
2018-06-23T00:09:02.337Z,952.58
2018-06-23T00:11:28.635Z,952.56
2018-06-23T00:13:54.928Z,952.66
2018-06-23T00:16:21.235Z,952.66
2018-06-23T00:18:47.542Z,952.66
2018-06-23T00:21:13.838Z,952.72
2018-06-23T00:23:40.133Z,952.54
2018-06-23T00:26:06.448Z,952.54
2018-06-23T00:28:32.740Z,952.67
2018-06-23T00:30:59.032Z,952.76
2018-06-23T00:33:25.320Z,952.75
2018-06-23T00:35:51.617Z,952.72
2018-06-23T00:38:17.912Z,952.81
2018-06-23T00:40:44.201Z,952.75
2018-06-23T00:43:10.520Z,952.76
2018-06-23T00:45:36.813Z,952.74
2018-06-23T00:48:03.131Z,952.83
2018-06-23T00:50:29.425Z,952.87
2018-06-23T00:52:55.717Z,952.91
2018-06-23T00:55:22.007Z,952.89
2018-06-23T00:57:48.290Z,952.93
2018-06-23T01:00:14.591Z,952.83
2018-06-23T01:02:40.890Z,952.91
2018-06-23T01:05:07.197Z,952.97
2018-06-23T01:07:33.479Z,952.86
2018-06-23T01:09:59.809Z,952.89
2018-06-23T01:12:26.102Z,952.98
2018-06-23T01:14:52.397Z,952.90
2018-06-23T01:17:18.696Z,952.92
2018-06-23T01:19:44.994Z,952.87
2018-06-23T01:22:11.318Z,952.88
2018-06-23T01:24:37.609Z,952.94
2018-06-23T01:27:03.903Z,952.91
2018-06-23T01:29:30.193Z,952.88
2018-06-23T01:31:56.483Z,952.95
2018-06-23T01:34:22.812Z,952.95
2018-06-23T01:36:49.103Z,952.92
2018-06-23T01:39:15.392Z,952.90
2018-06-23T01:41:41.685Z,952.88
2018-06-23T01:44:07.978Z,952.94
2018-06-23T01:46:34.269Z,953.01
2018-06-23T01:49:00.555Z,953.09
2018-06-23T01:51:26.863Z,952.99
2018-06-23T01:53:53.160Z,953.05
2018-06-23T01:56:19.479Z,953.06
2018-06-23T01:58:45.779Z,953.06
2018-06-23T02:01:12.074Z,953.09
2018-06-23T02:03:38.372Z,953.04
2018-06-23T02:06:04.670Z,953.19
2018-06-23T02:08:30.968Z,953.20
2018-06-23T02:10:57.259Z,953.32
2018-06-23T02:13:23.582Z,953.36
2018-06-23T02:15:49.867Z,953.32
2018-06-23T02:18:16.158Z,953.45
2018-06-23T02:20:42.451Z,953.41
2018-06-23T02:23:08.741Z,953.46
2018-06-23T02:25:35.039Z,953.43
2018-06-23T02:28:01.336Z,953.52
2018-06-23T02:30:27.626Z,953.54
2018-06-23T02:32:53.919Z,953.52
2018-06-23T02:35:20.217Z,953.57
2018-06-23T02:37:46.505Z,953.66
2018-06-23T02:40:12.799Z,953.63
2018-06-23T02:42:39.090Z,953.62
2018-06-23T02:45:05.433Z,953.71
2018-06-23T02:47:31.729Z,953.56
2018-06-23T02:49:58.028Z,953.62
2018-06-23T02:52:24.323Z,953.63
2018-06-23T02:54:50.613Z,953.68
2018-06-23T02:57:16.904Z,953.71
2018-06-23T02:59:43.198Z,953.71
2018-06-23T03:02:09.493Z,953.77
2018-06-23T03:04:35.780Z,953.88
2018-06-23T03:07:02.078Z,953.97
2018-06-23T03:09:28.369Z,953.96
2018-06-23T03:11:54.692Z,953.94
2018-06-23T03:14:20.985Z,954.03
2018-06-23T03:16:47.272Z,954.10
2018-06-23T03:19:13.564Z,954.12
2018-06-23T03:21:39.853Z,954.19
2018-06-23T03:24:06.172Z,954.18
2018-06-23T03:26:32.466Z,954.13
2018-06-23T03:28:58.761Z,954.19
2018-06-23T03:31:25.063Z,954.23
2018-06-23T03:33:51.356Z,954.22
2018-06-23T03:36:17.689Z,954.30
2018-06-23T03:38:43.981Z,954.35
2018-06-23T03:41:10.267Z,954.28
2018-06-23T03:43:36.561Z,954.39
2018-06-23T03:46:02.851Z,954.43
2018-06-23T03:48:29.136Z,954.35
2018-06-23T03:50:55.423Z,954.41
2018-06-23T03:53:21.745Z,954.28
2018-06-23T03:55:48.038Z,954.29
2018-06-23T03:58:14.330Z,954.35
2018-06-23T04:00:40.634Z,954.40
2018-06-23T04:03:06.919Z,954.39
2018-06-23T04:05:33.218Z,954.27
2018-06-23T04:07:59.509Z,954.29
2018-06-23T04:10:25.808Z,954.32
2018-06-23T04:12:52.093Z,954.30
2018-06-23T04:15:18.413Z,954.36
2018-06-23T04:17:44.711Z,954.33
2018-06-23T04:20:11.001Z,954.50
2018-06-23T04:22:37.296Z,954.38
2018-06-23T04:25:03.599Z,954.49
2018-06-23T04:27:29.894Z,954.55
2018-06-23T04:29:56.190Z,954.59
2018-06-23T04:32:22.485Z,954.61
2018-06-23T04:34:48.780Z,954.66
2018-06-23T04:37:15.107Z,954.64
2018-06-23T04:39:41.404Z,954.62
2018-06-23T04:42:07.699Z,954.63
2018-06-23T04:44:34.001Z,954.73
2018-06-23T04:47:00.293Z,954.76
2018-06-23T04:49:26.583Z,954.73
2018-06-23T04:51:52.866Z,954.78
2018-06-23T04:54:19.162Z,954.71
2018-06-23T04:56:45.458Z,954.80
2018-06-23T04:59:11.743Z,954.90
2018-06-23T05:01:38.034Z,954.87
2018-06-23T05:04:04.363Z,954.84
2018-06-23T05:06:30.652Z,954.80
2018-06-23T05:08:56.934Z,954.86
2018-06-23T05:11:23.222Z,954.86
2018-06-23T05:13:49.512Z,954.92
2018-06-23T05:16:15.815Z,954.92
2018-06-23T05:18:42.115Z,955.03
2018-06-23T05:21:08.415Z,955.06
2018-06-23T05:23:34.802Z,955.06
2018-06-23T05:26:01.153Z,955.10
2018-06-23T05:28:27.419Z,955.03
2018-06-23T05:30:53.717Z,955.16
2018-06-23T05:33:20.015Z,955.23
2018-06-23T05:35:46.299Z,955.27
2018-06-23T05:38:12.593Z,955.30
2018-06-23T05:40:38.890Z,955.34
2018-06-23T05:43:05.191Z,955.29
2018-06-23T05:45:31.487Z,955.32
2018-06-23T05:47:57.780Z,955.29
2018-06-23T05:50:24.083Z,955.28
2018-06-23T05:52:50.388Z,955.40
2018-06-23T05:55:16.690Z,955.35
2018-06-23T05:57:43.009Z,955.39
2018-06-23T06:00:09.298Z,955.36
2018-06-23T06:02:35.589Z,955.45
2018-06-23T06:05:01.887Z,955.44
2018-06-23T06:07:28.183Z,955.48
2018-06-23T06:09:54.499Z,955.50
2018-06-23T06:12:20.788Z,955.64
2018-06-23T06:14:47.074Z,955.54
2018-06-23T06:17:13.366Z,955.57
2018-06-23T06:19:39.651Z,955.48
2018-06-23T06:22:05.944Z,955.42
2018-06-23T06:24:32.239Z,955.49
2018-06-23T06:26:58.580Z,955.43
2018-06-23T06:29:24.884Z,955.41
2018-06-23T06:31:51.159Z,955.50
2018-06-23T06:34:17.447Z,955.44
2018-06-23T06:36:43.748Z,955.48
2018-06-23T06:39:10.068Z,955.53
2018-06-23T06:41:36.393Z,955.51
2018-06-23T06:44:02.701Z,955.51
2018-06-23T06:46:28.983Z,955.49
2018-06-23T06:48:55.277Z,955.48
2018-06-23T06:51:21.566Z,955.44
2018-06-23T06:53:47.889Z,955.51
2018-06-23T06:56:14.171Z,955.48
2018-06-23T06:58:40.464Z,955.50
2018-06-23T07:01:06.757Z,955.53
2018-06-23T07:03:33.111Z,955.60
2018-06-23T07:05:59.349Z,955.49
2018-06-23T07:08:25.664Z,955.53
2018-06-23T07:10:51.980Z,955.52
2018-06-23T07:13:18.266Z,955.42
2018-06-23T07:15:44.555Z,955.45
2018-06-23T07:18:10.872Z,955.48
2018-06-23T07:20:37.179Z,955.42
2018-06-23T07:23:03.468Z,955.49
2018-06-23T07:25:29.763Z,955.46
2018-06-23T07:27:56.051Z,955.46
2018-06-23T07:30:22.341Z,955.39
2018-06-23T07:32:48.710Z,955.51
2018-06-23T07:35:15.149Z,955.47
2018-06-23T07:37:41.294Z,955.51
2018-06-23T07:40:07.583Z,955.48
2018-06-23T07:42:33.872Z,955.59
2018-06-23T07:45:00.169Z,955.62
2018-06-23T07:47:26.464Z,955.56
2018-06-23T07:49:52.751Z,955.54
2018-06-23T07:52:19.044Z,955.59
2018-06-23T07:54:45.358Z,955.62
2018-06-23T07:57:11.657Z,955.62
2018-06-23T07:59:37.951Z,955.56
2018-06-23T08:02:04.240Z,955.55
2018-06-23T08:04:30.526Z,955.56
2018-06-23T08:06:56.856Z,955.60
2018-06-23T08:09:23.143Z,955.62
2018-06-23T08:11:49.446Z,955.57
2018-06-23T08:14:15.718Z,955.65
2018-06-23T08:16:42.401Z,955.60
2018-06-23T08:19:08.688Z,955.57
2018-06-23T08:21:35.007Z,955.64
2018-06-23T08:24:01.292Z,955.62
2018-06-23T08:26:27.608Z,955.63
2018-06-23T08:28:53.881Z,955.57
2018-06-23T08:31:20.209Z,955.60
2018-06-23T08:33:46.499Z,955.58
2018-06-23T08:36:12.790Z,955.65
2018-06-23T08:38:39.410Z,955.53
2018-06-23T08:41:05.728Z,955.49
2018-06-23T08:43:32.013Z,955.55
2018-06-23T08:45:58.306Z,955.47
2018-06-23T08:48:24.600Z,955.48
2018-06-23T08:50:50.896Z,955.32
2018-06-23T08:53:17.222Z,955.46
2018-06-23T08:55:43.510Z,955.45
2018-06-23T08:58:09.809Z,955.34
2018-06-23T09:00:36.380Z,955.33
2018-06-23T09:03:02.674Z,955.42
2018-06-23T09:05:28.968Z,955.38
2018-06-23T09:07:55.254Z,955.36
2018-06-23T09:10:21.591Z,955.38
2018-06-23T09:12:47.890Z,955.53
2018-06-23T09:15:14.192Z,955.36
2018-06-23T09:17:40.483Z,955.35
2018-06-23T09:20:06.773Z,955.29
2018-06-23T09:22:33.070Z,955.40
2018-06-23T09:24:59.367Z,955.42
2018-06-23T09:27:25.691Z,955.44
2018-06-23T09:29:51.993Z,955.27
2018-06-23T09:32:18.278Z,955.36
2018-06-23T09:34:44.579Z,955.44
2018-06-23T09:37:10.868Z,955.45
2018-06-23T09:39:37.160Z,955.44
2018-06-23T09:42:03.455Z,955.36
2018-06-23T09:44:29.770Z,955.37
2018-06-23T09:46:56.075Z,955.41
2018-06-23T09:49:22.365Z,955.37
2018-06-23T09:51:48.667Z,955.25
2018-06-23T09:54:15.007Z,955.33
2018-06-23T09:56:41.674Z,955.25
2018-06-23T09:59:07.940Z,955.08
2018-06-23T10:01:34.277Z,955.18
2018-06-23T10:04:00.575Z,955.18
2018-06-23T10:06:26.876Z,955.17
2018-06-23T10:08:53.179Z,955.18
2018-06-23T10:11:19.476Z,955.11
2018-06-23T10:13:47.570Z,955.10
2018-06-23T10:16:12.061Z,955.10
2018-06-23T10:18:38.367Z,955.04
2018-06-23T10:21:04.673Z,955.09
2018-06-23T10:23:30.965Z,955.02
2018-06-23T10:25:57.264Z,954.88
2018-06-23T10:28:23.584Z,954.86
2018-06-23T10:30:49.876Z,954.83
2018-06-23T10:33:16.162Z,954.75
2018-06-23T10:35:42.517Z,954.82
2018-06-23T10:38:08.809Z,954.75
2018-06-23T10:40:35.116Z,954.70
2018-06-23T10:43:01.402Z,954.61
2018-06-23T10:45:27.769Z,954.59
2018-06-23T10:47:54.123Z,954.49
2018-06-23T10:50:20.413Z,954.59
2018-06-23T10:52:46.695Z,954.45
2018-06-23T10:55:12.996Z,954.50
2018-06-23T10:57:39.284Z,954.55
2018-06-23T11:00:05.623Z,954.50
2018-06-23T11:02:31.912Z,954.36
2018-06-23T11:04:58.306Z,954.35
2018-06-23T11:07:24.495Z,954.26
2018-06-23T11:09:50.791Z,954.25
2018-06-23T11:12:17.107Z,954.24
2018-06-23T11:14:43.395Z,954.22
2018-06-23T11:17:09.729Z,954.12
2018-06-23T11:19:36.018Z,954.13
2018-06-23T11:22:02.304Z,954.18
2018-06-23T11:24:28.682Z,954.04
2018-06-23T11:26:54.897Z,953.95
2018-06-23T11:29:21.199Z,953.88
2018-06-23T11:31:47.487Z,953.91
2018-06-23T11:34:13.774Z,953.82
2018-06-23T11:36:40.072Z,953.98
2018-06-23T11:39:06.392Z,953.93
2018-06-23T11:41:32.686Z,953.95
2018-06-23T11:43:58.972Z,953.86
2018-06-23T11:46:25.282Z,953.84
2018-06-23T11:48:51.566Z,953.83
2018-06-23T11:51:17.866Z,953.79
2018-06-23T11:53:44.175Z,953.78
2018-06-23T11:56:10.515Z,953.70
2018-06-23T11:58:36.804Z,953.75
2018-06-23T12:01:03.099Z,953.79
2018-06-23T12:03:29.387Z,953.71
2018-06-23T12:05:55.682Z,953.65
2018-06-23T12:08:22.004Z,953.63
2018-06-23T12:10:48.304Z,953.77
2018-06-23T12:13:14.594Z,953.72
2018-06-23T12:15:40.885Z,953.62
2018-06-23T12:18:07.180Z,953.65
2018-06-23T12:20:33.476Z,953.68
2018-06-23T12:22:59.763Z,953.68
2018-06-23T12:25:26.142Z,953.64
2018-06-23T12:27:52.382Z,953.52
2018-06-23T12:30:18.715Z,953.64
2018-06-23T12:32:44.977Z,953.61
2018-06-23T12:35:11.277Z,953.52
2018-06-23T12:37:37.566Z,953.57
2018-06-23T12:40:03.860Z,953.53
2018-06-23T12:42:30.150Z,953.56
2018-06-23T12:44:56.440Z,953.52
2018-06-23T12:47:22.739Z,953.41
2018-06-23T12:49:49.032Z,953.44
2018-06-23T12:52:15.348Z,953.44
2018-06-23T12:54:41.645Z,953.38
2018-06-23T12:57:07.930Z,953.44
2018-06-23T12:59:34.224Z,953.50
2018-06-23T13:02:00.510Z,953.40
2018-06-23T13:04:26.844Z,953.38
2018-06-23T13:06:53.133Z,953.34
2018-06-23T13:09:19.420Z,953.31
2018-06-23T13:11:45.717Z,953.26
2018-06-23T13:14:12.005Z,953.22
2018-06-23T13:16:38.346Z,953.11
2018-06-23T13:19:04.650Z,953.29
2018-06-23T13:21:30.958Z,953.25
2018-06-23T13:23:57.987Z,953.20
2018-06-23T13:26:24.288Z,953.23
2018-06-23T13:28:50.588Z,953.21
2018-06-23T13:31:16.882Z,953.29
2018-06-23T13:33:43.213Z,953.31
2018-06-23T13:36:09.510Z,953.24
2018-06-23T13:38:35.806Z,953.31
2018-06-23T13:41:02.106Z,953.33
2018-06-23T13:43:28.457Z,953.27
2018-06-23T13:45:54.751Z,953.28
2018-06-23T13:48:21.119Z,953.21
2018-06-23T13:50:47.436Z,953.16
2018-06-23T13:53:13.720Z,953.20
2018-06-23T13:55:40.111Z,953.18
2018-06-23T13:58:06.422Z,953.23
2018-06-23T14:00:32.710Z,953.18
2018-06-23T14:02:59.032Z,953.28
2018-06-23T14:05:25.322Z,953.19
2018-06-23T14:07:51.610Z,953.17
2018-06-23T14:10:17.904Z,953.16
2018-06-23T14:12:44.299Z,953.14
2018-06-23T14:15:10.590Z,953.09
2018-06-23T14:17:36.884Z,953.01
2018-06-23T14:20:03.191Z,953.07
2018-06-23T14:22:29.479Z,953.05
2018-06-23T14:24:55.784Z,953.06
2018-06-23T14:27:22.070Z,952.91
2018-06-23T14:29:48.396Z,952.98
2018-06-23T14:32:14.797Z,953.02
2018-06-23T14:34:40.988Z,952.92
2018-06-23T14:37:07.279Z,952.87
2018-06-23T14:39:33.567Z,952.97
2018-06-23T14:41:59.865Z,953.00
2018-06-23T14:44:26.153Z,952.95
2018-06-23T14:46:52.487Z,952.93
2018-06-23T14:49:18.776Z,952.93
2018-06-23T14:51:45.074Z,952.92
2018-06-23T14:54:11.438Z,952.92
2018-06-23T14:56:37.726Z,952.93
2018-06-23T14:59:04.014Z,952.94
2018-06-23T15:01:30.352Z,952.96
2018-06-23T15:03:56.638Z,952.93
2018-06-23T15:06:22.927Z,952.91
2018-06-23T15:08:49.220Z,952.91
2018-06-23T15:11:15.522Z,952.98
2018-06-23T15:13:41.817Z,952.95
2018-06-23T15:16:08.113Z,953.09
2018-06-23T15:18:34.411Z,953.03
2018-06-23T15:21:00.699Z,953.11
2018-06-23T15:23:26.999Z,953.11
2018-06-23T15:25:53.336Z,953.12
2018-06-23T15:28:19.627Z,953.15
2018-06-23T15:30:45.921Z,953.13
2018-06-23T15:33:12.223Z,953.22
2018-06-23T15:35:38.529Z,953.23
2018-06-23T15:38:04.895Z,953.23
2018-06-23T15:40:31.184Z,953.30
2018-06-23T15:42:57.464Z,953.17
2018-06-23T15:45:23.764Z,953.24
2018-06-23T15:47:50.061Z,953.20
2018-06-23T15:50:16.379Z,953.32
2018-06-23T15:52:42.673Z,953.33
2018-06-23T15:55:08.959Z,953.32
2018-06-23T15:57:35.248Z,953.30
2018-06-23T16:00:01.531Z,953.27
2018-06-23T16:02:27.837Z,953.33
2018-06-23T16:04:54.126Z,953.37
2018-06-23T16:07:20.424Z,953.34
2018-06-23T16:09:46.723Z,953.36
2018-06-23T16:12:13.024Z,953.39
2018-06-23T16:14:39.324Z,953.38
2018-06-23T16:17:05.624Z,953.38
2018-06-23T16:19:31.919Z,953.38
2018-06-23T16:21:58.230Z,953.43
2018-06-23T16:24:24.528Z,953.54
2018-06-23T16:26:50.819Z,953.56
2018-06-23T16:29:17.114Z,953.59
2018-06-23T16:31:43.532Z,953.66
2018-06-23T16:34:10.121Z,953.60
2018-06-23T16:36:36.423Z,953.66
2018-06-23T16:39:02.707Z,953.58
2018-06-23T16:41:29.036Z,953.73
2018-06-23T16:43:55.324Z,953.64
2018-06-23T16:46:21.727Z,953.70
2018-06-23T16:48:48.026Z,953.74
2018-06-23T16:51:14.328Z,953.73
2018-06-23T16:53:40.626Z,953.76
2018-06-23T16:56:06.921Z,953.73
2018-06-23T16:58:33.212Z,953.81
2018-06-23T17:00:59.498Z,953.85
2018-06-23T17:03:25.795Z,953.83
2018-06-23T17:05:52.085Z,953.91
2018-06-23T17:08:18.388Z,953.88
2018-06-23T17:10:44.680Z,953.92
2018-06-23T17:13:10.973Z,953.93
2018-06-23T17:15:37.265Z,953.98
2018-06-23T17:18:03.582Z,953.94
2018-06-23T17:20:29.874Z,953.93
2018-06-23T17:22:56.170Z,953.98
2018-06-23T17:25:22.464Z,954.02
2018-06-23T17:27:48.761Z,953.99
2018-06-23T17:30:15.084Z,954.04
2018-06-23T17:32:41.382Z,954.09
2018-06-23T17:35:07.680Z,954.20
2018-06-23T17:37:33.976Z,954.22
2018-06-23T17:40:00.267Z,954.18
2018-06-23T17:42:26.556Z,954.23
2018-06-23T17:44:52.851Z,954.24
2018-06-23T17:47:19.136Z,954.18
2018-06-23T17:49:45.431Z,954.22
2018-06-23T17:52:11.729Z,954.20
2018-06-23T17:54:38.017Z,954.20
2018-06-23T17:57:04.317Z,954.30
2018-06-23T17:59:30.609Z,954.27
2018-06-23T18:01:56.918Z,954.31
2018-06-23T18:04:23.209Z,954.27
2018-06-23T18:06:49.510Z,954.33
2018-06-23T18:09:15.801Z,954.35
2018-06-23T18:11:42.096Z,954.40
2018-06-23T18:14:08.387Z,954.45
2018-06-23T18:16:34.680Z,954.45
2018-06-23T18:19:00.971Z,954.42
2018-06-23T18:21:27.296Z,954.45
2018-06-23T18:23:53.622Z,954.47
2018-06-23T18:26:19.912Z,954.45
2018-06-23T18:28:46.198Z,954.54
2018-06-23T18:31:12.486Z,954.56
2018-06-23T18:33:38.776Z,954.58
2018-06-23T18:36:05.087Z,954.59
2018-06-23T18:38:31.376Z,954.55
2018-06-23T18:40:57.662Z,954.68
2018-06-23T18:43:23.946Z,954.64
2018-06-23T18:45:50.238Z,954.75
2018-06-23T18:48:16.528Z,954.81
2018-06-23T18:50:42.820Z,954.89
2018-06-23T18:53:09.106Z,954.91
2018-06-23T18:55:35.395Z,954.92
2018-06-23T18:58:01.692Z,954.99
2018-06-23T19:00:27.979Z,955.01
2018-06-23T19:02:54.268Z,955.11
2018-06-23T19:05:20.554Z,955.11
2018-06-23T19:07:46.847Z,955.08
2018-06-23T19:10:13.142Z,955.11
2018-06-23T19:12:39.438Z,955.17
2018-06-23T19:15:05.766Z,955.22
2018-06-23T19:17:32.063Z,955.20
2018-06-23T19:19:58.361Z,955.20
2018-06-23T19:22:24.699Z,955.26
2018-06-23T19:24:50.989Z,955.34
2018-06-23T19:27:17.317Z,955.30
2018-06-23T19:29:43.604Z,955.29
2018-06-23T19:32:09.899Z,955.32
2018-06-23T19:34:36.186Z,955.28
2018-06-23T19:37:02.481Z,955.30
2018-06-23T19:39:29.780Z,955.24
2018-06-23T19:41:56.060Z,955.28
2018-06-23T19:44:22.426Z,955.30
2018-06-23T19:46:48.665Z,955.31
2018-06-23T19:49:14.965Z,955.29
2018-06-23T19:51:41.252Z,955.27
2018-06-23T19:54:07.547Z,955.32
2018-06-23T19:56:33.835Z,955.27
2018-06-23T19:59:00.216Z,955.27
2018-06-23T20:01:26.451Z,955.29
2018-06-23T20:03:52.740Z,955.20
2018-06-23T20:06:19.027Z,955.22
2018-06-23T20:08:45.329Z,955.21
2018-06-23T20:11:11.664Z,955.23
2018-06-23T20:13:37.955Z,955.27
2018-06-23T20:16:04.244Z,955.27
2018-06-23T20:18:30.534Z,955.18
2018-06-23T20:20:56.818Z,955.25
2018-06-23T20:23:23.156Z,955.30
2018-06-23T20:25:49.447Z,955.31
2018-06-23T20:28:15.781Z,955.27
2018-06-23T20:30:42.073Z,955.36
2018-06-23T20:33:08.358Z,955.38
2018-06-23T20:35:34.943Z,955.37
2018-06-23T20:38:01.230Z,955.40
2018-06-23T20:40:27.552Z,955.40
2018-06-23T20:42:53.843Z,955.42
2018-06-23T20:45:20.138Z,955.35
2018-06-23T20:47:46.434Z,955.38
2018-06-23T20:50:12.719Z,955.34
2018-06-23T20:52:39.017Z,955.35
2018-06-23T20:55:05.308Z,955.36
2018-06-23T20:57:31.611Z,955.28
2018-06-23T20:59:57.900Z,955.28
2018-06-23T21:02:24.197Z,955.33
2018-06-23T21:04:50.482Z,955.31
2018-06-23T21:07:16.843Z,955.30
2018-06-23T21:09:43.086Z,955.31
2018-06-23T21:12:09.382Z,955.24
2018-06-23T21:14:35.683Z,955.30
2018-06-23T21:17:01.974Z,955.28
2018-06-23T21:19:28.282Z,955.29
2018-06-23T21:21:54.569Z,955.31
2018-06-23T21:24:20.867Z,955.31
2018-06-23T21:26:47.151Z,955.33
2018-06-23T21:29:13.453Z,955.33
2018-06-23T21:31:39.741Z,955.30
2018-06-23T21:34:06.062Z,955.30
2018-06-23T21:36:32.358Z,955.33
2018-06-23T21:38:58.645Z,955.30
2018-06-23T21:41:24.953Z,955.31
2018-06-23T21:43:51.258Z,955.30
2018-06-23T21:46:17.556Z,955.29
2018-06-23T21:48:43.838Z,955.32
2018-06-23T21:51:10.164Z,955.38
2018-06-23T21:53:36.456Z,955.38
2018-06-23T21:56:02.740Z,955.32
2018-06-23T21:58:29.026Z,955.31
2018-06-23T22:00:55.316Z,955.21
2018-06-23T22:03:21.603Z,955.29
2018-06-23T22:05:47.886Z,955.27
2018-06-23T22:08:14.174Z,955.24
2018-06-23T22:10:40.458Z,955.25
2018-06-23T22:13:06.753Z,955.24
2018-06-23T22:15:33.041Z,955.27
2018-06-23T22:17:59.332Z,955.25
2018-06-23T22:20:25.626Z,955.22
2018-06-23T22:22:51.921Z,955.24
2018-06-23T22:25:18.217Z,955.29
2018-06-23T22:27:44.509Z,955.23
2018-06-23T22:30:10.804Z,955.25
2018-06-23T22:32:37.092Z,955.27
2018-06-23T22:35:03.390Z,955.27
2018-06-23T22:37:29.681Z,955.33
2018-06-23T22:39:56.006Z,955.26
2018-06-23T22:42:22.298Z,955.27
2018-06-23T22:44:48.574Z,955.21
2018-06-23T22:47:14.863Z,955.26
2018-06-23T22:49:41.147Z,955.21
2018-06-23T22:52:07.441Z,955.29
2018-06-23T22:54:34.048Z,955.22
2018-06-23T22:57:00.371Z,955.23
2018-06-23T22:59:26.651Z,955.19
2018-06-23T23:01:52.949Z,955.22
2018-06-23T23:04:19.244Z,955.22
2018-06-23T23:06:45.538Z,955.19
2018-06-23T23:09:11.829Z,955.21
2018-06-23T23:11:38.126Z,955.17
2018-06-23T23:14:04.418Z,955.13
2018-06-23T23:16:30.706Z,955.14
2018-06-23T23:18:56.991Z,955.16
2018-06-23T23:21:23.317Z,955.11
2018-06-23T23:23:49.598Z,955.08
2018-06-23T23:26:15.883Z,955.14
2018-06-23T23:28:42.175Z,955.06
2018-06-23T23:31:08.462Z,955.01
2018-06-23T23:33:34.778Z,955.05
2018-06-23T23:36:01.062Z,954.97
2018-06-23T23:38:27.357Z,955.02
2018-06-23T23:40:53.648Z,954.96
2018-06-23T23:43:19.933Z,954.99
2018-06-23T23:45:46.219Z,954.95
2018-06-23T23:48:12.509Z,954.95
2018-06-23T23:50:38.827Z,954.94
2018-06-23T23:53:05.119Z,954.84
2018-06-23T23:55:31.409Z,954.97
2018-06-23T23:57:57.701Z,954.95
